sensor_id;sensor_type;location;lat;lon;timestamp;pressure;altitude;pressure_sealevel;temperature;humidity
46211;BME280;52144;48.040;-1.594;2023-07-20T00:02:21;101342.50;;;20.42;79.32
46211;BME280;52144;48.040;-1.594;2023-07-20T00:04:49;101356.88;;;20.42;79.50
46211;BME280;52144;48.040;-1.594;2023-07-20T00:07:17;101343.06;;;20.58;78.06
46211;BME280;52144;48.040;-1.594;2023-07-20T00:09:45;101351.81;;;20.73;77.38
46211;BME280;52144;48.040;-1.594;2023-07-20T00:12:13;101353.81;;;20.94;76.33
46211;BME280;52144;48.040;-1.594;2023-07-20T00:14:41;101356.03;;;21.11;74.81
46211;BME280;52144;48.040;-1.594;2023-07-20T00:17:09;101357.66;;;21.02;75.43
46211;BME280;52144;48.040;-1.594;2023-07-20T00:19:38;101346.44;;;21.07;75.63
46211;BME280;52144;48.040;-1.594;2023-07-20T00:22:06;101353.78;;;20.71;78.02
46211;BME280;52144;48.040;-1.594;2023-07-20T00:24:33;101349.09;;;20.73;76.22
46211;BME280;52144;48.040;-1.594;2023-07-20T00:27:01;101349.38;;;20.70;76.17
46211;BME280;52144;48.040;-1.594;2023-07-20T00:29:29;101356.75;;;20.68;75.78
46211;BME280;52144;48.040;-1.594;2023-07-20T00:31:58;101355.13;;;20.66;76.15
46211;BME280;52144;48.040;-1.594;2023-07-20T00:34:25;101349.97;;;20.62;77.46
46211;BME280;52144;48.040;-1.594;2023-07-20T00:36:55;101353.34;;;20.53;77.43
46211;BME280;52144;48.040;-1.594;2023-07-20T00:39:22;101349.09;;;20.62;77.81
46211;BME280;52144;48.040;-1.594;2023-07-20T00:41:50;101340.91;;;20.51;77.26
46211;BME280;52144;48.040;-1.594;2023-07-20T00:44:18;101337.28;;;20.28;80.08
46211;BME280;52144;48.040;-1.594;2023-07-20T00:46:46;101337.97;;;20.54;79.00
46211;BME280;52144;48.040;-1.594;2023-07-20T00:49:14;101339.13;;;20.27;78.67
46211;BME280;52144;48.040;-1.594;2023-07-20T00:51:43;101331.13;;;20.26;80.66
46211;BME280;52144;48.040;-1.594;2023-07-20T00:54:12;101332.25;;;20.34;79.41
46211;BME280;52144;48.040;-1.594;2023-07-20T00:56:40;101323.50;;;20.31;79.46
46211;BME280;52144;48.040;-1.594;2023-07-20T00:59:09;101323.06;;;20.01;81.96
46211;BME280;52144;48.040;-1.594;2023-07-20T01:01:37;101320.50;;;20.11;81.81
46211;BME280;52144;48.040;-1.594;2023-07-20T01:04:05;101316.63;;;19.91;82.67
46211;BME280;52144;48.040;-1.594;2023-07-20T01:06:38;101304.78;;;19.68;83.62
46211;BME280;52144;48.040;-1.594;2023-07-20T01:09:16;101305.25;;;19.75;82.58
46211;BME280;52144;48.040;-1.594;2023-07-20T01:11:51;101304.31;;;19.87;82.54
46211;BME280;52144;48.040;-1.594;2023-07-20T01:14:21;101309.28;;;20.04;82.66
46211;BME280;52144;48.040;-1.594;2023-07-20T01:16:51;101308.84;;;20.22;82.06
46211;BME280;52144;48.040;-1.594;2023-07-20T01:19:20;101294.97;;;20.27;82.69
46211;BME280;52144;48.040;-1.594;2023-07-20T01:21:55;101307.13;;;20.21;82.23
46211;BME280;52144;48.040;-1.594;2023-07-20T01:24:51;101299.31;;;20.40;82.99
46211;BME280;52144;48.040;-1.594;2023-07-20T01:28:00;101294.75;;;20.30;82.89
46211;BME280;52144;48.040;-1.594;2023-07-20T01:30:53;101292.63;;;20.22;82.64
46211;BME280;52144;48.040;-1.594;2023-07-20T01:33:25;101295.44;;;20.20;83.12
46211;BME280;52144;48.040;-1.594;2023-07-20T01:35:56;101288.69;;;20.26;84.27
46211;BME280;52144;48.040;-1.594;2023-07-20T01:38:25;101289.19;;;20.31;82.04
46211;BME280;52144;48.040;-1.594;2023-07-20T01:40:53;101283.25;;;20.15;85.09
46211;BME280;52144;48.040;-1.594;2023-07-20T01:43:21;101285.28;;;20.35;83.84
46211;BME280;52144;48.040;-1.594;2023-07-20T01:45:49;101291.66;;;20.34;84.31
46211;BME280;52144;48.040;-1.594;2023-07-20T01:48:17;101292.78;;;20.32;82.60
46211;BME280;52144;48.040;-1.594;2023-07-20T01:50:46;101294.81;;;20.17;82.95
46211;BME280;52144;48.040;-1.594;2023-07-20T01:53:14;101285.72;;;20.18;81.59
46211;BME280;52144;48.040;-1.594;2023-07-20T01:55:42;101281.44;;;20.27;79.38
46211;BME280;52144;48.040;-1.594;2023-07-20T01:58:10;101280.53;;;20.15;78.72
46211;BME280;52144;48.040;-1.594;2023-07-20T02:00:37;101286.50;;;19.96;80.95
46211;BME280;52144;48.040;-1.594;2023-07-20T02:03:06;101278.78;;;20.02;81.33
46211;BME280;52144;48.040;-1.594;2023-07-20T02:05:33;101284.25;;;20.14;81.84
46211;BME280;52144;48.040;-1.594;2023-07-20T02:08:03;101284.97;;;19.56;81.79
46211;BME280;52144;48.040;-1.594;2023-07-20T02:10:31;101282.34;;;19.31;83.20
46211;BME280;52144;48.040;-1.594;2023-07-20T02:12:59;101288.31;;;19.23;83.29
46211;BME280;52144;48.040;-1.594;2023-07-20T02:15:26;101286.44;;;18.99;83.50
46211;BME280;52144;48.040;-1.594;2023-07-20T02:17:55;101287.44;;;18.86;84.39
46211;BME280;52144;48.040;-1.594;2023-07-20T02:20:22;101275.53;;;18.88;84.67
46211;BME280;52144;48.040;-1.594;2023-07-20T02:22:50;101274.06;;;19.21;83.38
46211;BME280;52144;48.040;-1.594;2023-07-20T02:25:20;101275.91;;;19.20;80.75
46211;BME280;52144;48.040;-1.594;2023-07-20T02:27:48;101275.09;;;19.07;82.60
46211;BME280;52144;48.040;-1.594;2023-07-20T02:30:15;101274.94;;;19.09;82.78
46211;BME280;52144;48.040;-1.594;2023-07-20T02:32:44;101279.81;;;19.16;82.20
46211;BME280;52144;48.040;-1.594;2023-07-20T02:35:15;101270.03;;;19.27;79.99
46211;BME280;52144;48.040;-1.594;2023-07-20T02:37:43;101265.38;;;18.92;83.14
46211;BME280;52144;48.040;-1.594;2023-07-20T02:40:11;101262.88;;;19.01;82.88
46211;BME280;52144;48.040;-1.594;2023-07-20T02:42:40;101268.13;;;19.16;83.21
46211;BME280;52144;48.040;-1.594;2023-07-20T02:45:09;101269.03;;;18.91;82.97
46211;BME280;52144;48.040;-1.594;2023-07-20T02:47:36;101265.91;;;18.97;83.21
46211;BME280;52144;48.040;-1.594;2023-07-20T02:50:07;101260.19;;;18.76;83.43
46211;BME280;52144;48.040;-1.594;2023-07-20T02:52:35;101254.63;;;18.79;83.57
46211;BME280;52144;48.040;-1.594;2023-07-20T02:55:03;101256.84;;;18.72;82.48
46211;BME280;52144;48.040;-1.594;2023-07-20T02:57:31;101259.31;;;19.01;84.91
46211;BME280;52144;48.040;-1.594;2023-07-20T03:00:01;101258.88;;;19.07;83.60
46211;BME280;52144;48.040;-1.594;2023-07-20T03:02:30;101252.72;;;19.05;81.93
46211;BME280;52144;48.040;-1.594;2023-07-20T03:04:58;101263.03;;;19.24;82.62
46211;BME280;52144;48.040;-1.594;2023-07-20T03:07:27;101262.53;;;19.43;80.52
46211;BME280;52144;48.040;-1.594;2023-07-20T03:09:55;101252.63;;;19.31;81.25
46211;BME280;52144;48.040;-1.594;2023-07-20T03:12:23;101257.81;;;19.34;80.60
46211;BME280;52144;48.040;-1.594;2023-07-20T03:14:51;101251.88;;;18.92;82.67
46211;BME280;52144;48.040;-1.594;2023-07-20T03:17:21;101246.69;;;18.76;82.98
46211;BME280;52144;48.040;-1.594;2023-07-20T03:19:49;101238.50;;;18.52;83.19
46211;BME280;52144;48.040;-1.594;2023-07-20T03:22:17;101237.75;;;18.50;83.36
46211;BME280;52144;48.040;-1.594;2023-07-20T03:24:45;101234.44;;;18.46;82.82
46211;BME280;52144;48.040;-1.594;2023-07-20T03:27:13;101238.50;;;18.52;82.01
46211;BME280;52144;48.040;-1.594;2023-07-20T03:29:41;101229.22;;;18.69;81.55
46211;BME280;52144;48.040;-1.594;2023-07-20T03:32:09;101224.13;;;18.64;81.10
46211;BME280;52144;48.040;-1.594;2023-07-20T03:34:38;101234.75;;;18.54;82.04
46211;BME280;52144;48.040;-1.594;2023-07-20T03:37:06;101231.16;;;18.54;82.49
46211;BME280;52144;48.040;-1.594;2023-07-20T03:39:34;101239.91;;;18.70;83.35
46211;BME280;52144;48.040;-1.594;2023-07-20T03:42:02;101245.28;;;18.70;81.98
46211;BME280;52144;48.040;-1.594;2023-07-20T03:44:30;101244.34;;;18.71;81.95
46211;BME280;52144;48.040;-1.594;2023-07-20T03:46:58;101247.34;;;18.92;80.87
46211;BME280;52144;48.040;-1.594;2023-07-20T03:49:26;101257.50;;;19.01;82.49
46211;BME280;52144;48.040;-1.594;2023-07-20T03:51:55;101253.09;;;19.24;82.84
46211;BME280;52144;48.040;-1.594;2023-07-20T03:54:23;101255.69;;;19.26;83.64
46211;BME280;52144;48.040;-1.594;2023-07-20T03:56:50;101257.91;;;19.08;82.40
46211;BME280;52144;48.040;-1.594;2023-07-20T03:59:18;101249.69;;;19.10;84.95
46211;BME280;52144;48.040;-1.594;2023-07-20T04:01:46;101252.69;;;19.18;85.24
46211;BME280;52144;48.040;-1.594;2023-07-20T04:04:16;101257.16;;;19.06;84.67
46211;BME280;52144;48.040;-1.594;2023-07-20T04:06:43;101252.72;;;19.05;83.81
46211;BME280;52144;48.040;-1.594;2023-07-20T04:09:13;101246.09;;;19.22;84.24
46211;BME280;52144;48.040;-1.594;2023-07-20T04:11:40;101256.25;;;19.18;85.29
46211;BME280;52144;48.040;-1.594;2023-07-20T04:14:08;101258.84;;;19.20;84.72
46211;BME280;52144;48.040;-1.594;2023-07-20T04:16:36;101254.59;;;19.29;84.25
46211;BME280;52144;48.040;-1.594;2023-07-20T04:19:04;101253.53;;;19.18;85.61
46211;BME280;52144;48.040;-1.594;2023-07-20T04:21:32;101251.19;;;19.14;86.04
46211;BME280;52144;48.040;-1.594;2023-07-20T04:24:00;101251.31;;;19.36;84.88
46211;BME280;52144;48.040;-1.594;2023-07-20T04:26:29;101252.72;;;19.42;84.66
46211;BME280;52144;48.040;-1.594;2023-07-20T04:28:56;101246.38;;;19.54;84.83
46211;BME280;52144;48.040;-1.594;2023-07-20T04:31:25;101254.72;;;19.51;84.40
46211;BME280;52144;48.040;-1.594;2023-07-20T04:33:53;101256.09;;;19.57;84.82
46211;BME280;52144;48.040;-1.594;2023-07-20T04:36:21;101252.47;;;19.69;83.83
46211;BME280;52144;48.040;-1.594;2023-07-20T04:38:49;101251.03;;;19.52;83.63
46211;BME280;52144;48.040;-1.594;2023-07-20T04:41:17;101247.50;;;19.39;84.33
46211;BME280;52144;48.040;-1.594;2023-07-20T04:43:47;101245.56;;;19.41;84.26
46211;BME280;52144;48.040;-1.594;2023-07-20T04:46:15;101239.38;;;19.28;84.41
46211;BME280;52144;48.040;-1.594;2023-07-20T04:48:44;101247.94;;;19.21;85.88
46211;BME280;52144;48.040;-1.594;2023-07-20T04:51:12;101251.13;;;19.27;86.25
46211;BME280;52144;48.040;-1.594;2023-07-20T04:53:39;101235.75;;;19.40;86.01
46211;BME280;52144;48.040;-1.594;2023-07-20T04:56:08;101241.16;;;19.40;83.47
46211;BME280;52144;48.040;-1.594;2023-07-20T04:58:37;101230.56;;;19.37;85.25
46211;BME280;52144;48.040;-1.594;2023-07-20T05:01:06;101232.34;;;19.49;85.53
46211;BME280;52144;48.040;-1.594;2023-07-20T05:03:34;101233.91;;;19.64;85.00
46211;BME280;52144;48.040;-1.594;2023-07-20T05:06:02;101230.78;;;19.82;84.61
46211;BME280;52144;48.040;-1.594;2023-07-20T05:08:29;101240.91;;;20.02;82.81
46211;BME280;52144;48.040;-1.594;2023-07-20T05:10:57;101233.81;;;20.13;81.51
46211;BME280;52144;48.040;-1.594;2023-07-20T05:13:26;101228.19;;;20.16;81.88
46211;BME280;52144;48.040;-1.594;2023-07-20T05:15:54;101230.63;;;20.19;81.30
46211;BME280;52144;48.040;-1.594;2023-07-20T05:18:23;101230.97;;;20.03;82.26
46211;BME280;52144;48.040;-1.594;2023-07-20T05:20:51;101238.84;;;20.06;82.29
46211;BME280;52144;48.040;-1.594;2023-07-20T05:23:21;101228.88;;;20.07;82.08
46211;BME280;52144;48.040;-1.594;2023-07-20T05:25:54;101230.09;;;20.02;82.37
46211;BME280;52144;48.040;-1.594;2023-07-20T05:28:21;101234.50;;;19.92;82.27
46211;BME280;52144;48.040;-1.594;2023-07-20T05:30:49;101233.94;;;20.11;83.00
46211;BME280;52144;48.040;-1.594;2023-07-20T05:33:19;101237.09;;;19.94;83.41
46211;BME280;52144;48.040;-1.594;2023-07-20T05:35:48;101238.13;;;20.15;81.80
46211;BME280;52144;48.040;-1.594;2023-07-20T05:38:16;101239.41;;;19.87;82.86
46211;BME280;52144;48.040;-1.594;2023-07-20T05:40:44;101243.50;;;19.44;85.93
46211;BME280;52144;48.040;-1.594;2023-07-20T05:43:13;101236.94;;;19.84;83.84
46211;BME280;52144;48.040;-1.594;2023-07-20T05:45:41;101237.63;;;19.99;82.88
46211;BME280;52144;48.040;-1.594;2023-07-20T05:48:09;101234.19;;;20.08;82.88
46211;BME280;52144;48.040;-1.594;2023-07-20T05:50:41;101236.47;;;19.90;83.86
46211;BME280;52144;48.040;-1.594;2023-07-20T05:53:11;101234.81;;;20.12;83.69
46211;BME280;52144;48.040;-1.594;2023-07-20T05:55:39;101236.06;;;20.30;82.26
46211;BME280;52144;48.040;-1.594;2023-07-20T05:58:07;101236.31;;;20.38;81.45
46211;BME280;52144;48.040;-1.594;2023-07-20T06:00:35;101242.28;;;20.66;79.83
46211;BME280;52144;48.040;-1.594;2023-07-20T06:03:03;101233.22;;;20.20;83.69
46211;BME280;52144;48.040;-1.594;2023-07-20T06:05:31;101231.56;;;20.64;81.87
46211;BME280;52144;48.040;-1.594;2023-07-20T06:07:58;101217.75;;;20.90;81.25
46211;BME280;52144;48.040;-1.594;2023-07-20T06:10:28;101223.03;;;21.03;78.54
46211;BME280;52144;48.040;-1.594;2023-07-20T06:12:56;101220.44;;;21.01;80.86
46211;BME280;52144;48.040;-1.594;2023-07-20T06:15:25;101220.50;;;21.34;78.51
46211;BME280;52144;48.040;-1.594;2023-07-20T06:17:54;101219.66;;;21.33;79.33
46211;BME280;52144;48.040;-1.594;2023-07-20T06:20:22;101221.44;;;21.55;77.82
46211;BME280;52144;48.040;-1.594;2023-07-20T06:22:50;101215.28;;;21.53;77.07
46211;BME280;52144;48.040;-1.594;2023-07-20T06:25:18;101223.44;;;21.42;77.95
46211;BME280;52144;48.040;-1.594;2023-07-20T06:27:49;101222.22;;;21.35;78.20
46211;BME280;52144;48.040;-1.594;2023-07-20T06:30:17;101224.69;;;21.38;79.15
46211;BME280;52144;48.040;-1.594;2023-07-20T06:32:45;101219.06;;;21.62;77.45
46211;BME280;52144;48.040;-1.594;2023-07-20T06:35:13;101220.56;;;21.55;77.47
46211;BME280;52144;48.040;-1.594;2023-07-20T06:37:41;101220.50;;;21.34;77.70
46211;BME280;52144;48.040;-1.594;2023-07-20T06:40:10;101230.22;;;21.48;78.24
46211;BME280;52144;48.040;-1.594;2023-07-20T06:42:41;101227.13;;;21.41;77.65
46211;BME280;52144;48.040;-1.594;2023-07-20T06:45:13;101226.09;;;21.86;78.18
46211;BME280;52144;48.040;-1.594;2023-07-20T06:47:41;101228.00;;;22.27;76.22
46211;BME280;52144;48.040;-1.594;2023-07-20T06:50:10;101229.31;;;22.33;75.33
46211;BME280;52144;48.040;-1.594;2023-07-20T06:52:43;101227.31;;;22.35;75.47
46211;BME280;52144;48.040;-1.594;2023-07-20T06:55:13;101223.72;;;22.65;74.39
46211;BME280;52144;48.040;-1.594;2023-07-20T06:57:41;101230.09;;;22.85;72.46
46211;BME280;52144;48.040;-1.594;2023-07-20T07:00:16;101217.16;;;22.16;74.29
46211;BME280;52144;48.040;-1.594;2023-07-20T07:02:44;101218.84;;;22.28;75.08
46211;BME280;52144;48.040;-1.594;2023-07-20T07:05:16;101217.44;;;22.64;71.64
46211;BME280;52144;48.040;-1.594;2023-07-20T07:07:47;101219.66;;;22.80;73.87
46211;BME280;52144;48.040;-1.594;2023-07-20T07:10:15;101215.38;;;22.47;74.89
46211;BME280;52144;48.040;-1.594;2023-07-20T07:12:43;101221.56;;;22.59;73.37
46211;BME280;52144;48.040;-1.594;2023-07-20T07:15:11;101205.63;;;22.44;74.71
46211;BME280;52144;48.040;-1.594;2023-07-20T07:17:40;101209.25;;;22.55;75.86
46211;BME280;52144;48.040;-1.594;2023-07-20T07:20:10;101208.72;;;23.01;72.34
46211;BME280;52144;48.040;-1.594;2023-07-20T07:22:47;101214.59;;;22.66;73.73
46211;BME280;52144;48.040;-1.594;2023-07-20T07:25:19;101206.97;;;22.91;72.61
46211;BME280;52144;48.040;-1.594;2023-07-20T07:27:50;101208.88;;;22.38;75.33
46211;BME280;52144;48.040;-1.594;2023-07-20T07:30:18;101209.63;;;22.40;75.00
46211;BME280;52144;48.040;-1.594;2023-07-20T07:32:48;101217.75;;;22.19;76.60
46211;BME280;52144;48.040;-1.594;2023-07-20T07:35:16;101216.25;;;22.06;76.00
46211;BME280;52144;48.040;-1.594;2023-07-20T07:37:43;101209.63;;;22.19;76.83
46211;BME280;52144;48.040;-1.594;2023-07-20T07:40:32;101213.47;;;22.17;74.89
46211;BME280;52144;48.040;-1.594;2023-07-20T07:43:00;101209.44;;;22.11;76.53
46211;BME280;52144;48.040;-1.594;2023-07-20T07:45:28;101209.97;;;22.57;74.34
46211;BME280;52144;48.040;-1.594;2023-07-20T07:47:57;101216.00;;;22.60;74.36
46211;BME280;52144;48.040;-1.594;2023-07-20T07:50:25;101207.59;;;22.73;72.89
46211;BME280;52144;48.040;-1.594;2023-07-20T07:52:54;101216.38;;;22.87;72.85
46211;BME280;52144;48.040;-1.594;2023-07-20T07:55:21;101210.06;;;22.76;72.94
46211;BME280;52144;48.040;-1.594;2023-07-20T07:57:49;101210.78;;;22.78;75.42
46211;BME280;52144;48.040;-1.594;2023-07-20T08:00:18;101212.00;;;22.64;74.87
46211;BME280;52144;48.040;-1.594;2023-07-20T08:02:46;101211.75;;;23.18;72.59
46211;BME280;52144;48.040;-1.594;2023-07-20T08:05:16;101210.53;;;23.51;69.08
46211;BME280;52144;48.040;-1.594;2023-07-20T08:07:44;101211.97;;;23.85;66.97
46211;BME280;52144;48.040;-1.594;2023-07-20T08:10:12;101201.34;;;23.52;70.17
46211;BME280;52144;48.040;-1.594;2023-07-20T08:12:40;101208.78;;;23.31;71.72
46211;BME280;52144;48.040;-1.594;2023-07-20T08:15:10;101200.94;;;23.86;69.53
46211;BME280;52144;48.040;-1.594;2023-07-20T08:17:38;101204.13;;;24.38;66.36
46211;BME280;52144;48.040;-1.594;2023-07-20T08:20:08;101203.06;;;23.73;67.85
46211;BME280;52144;48.040;-1.594;2023-07-20T08:22:40;101206.78;;;23.23;69.71
46211;BME280;52144;48.040;-1.594;2023-07-20T08:25:08;101202.91;;;23.55;68.33
46211;BME280;52144;48.040;-1.594;2023-07-20T08:27:36;101211.13;;;23.84;67.73
46211;BME280;52144;48.040;-1.594;2023-07-20T08:30:05;101215.19;;;24.27;66.32
46211;BME280;52144;48.040;-1.594;2023-07-20T08:32:34;101218.19;;;24.24;66.68
46211;BME280;52144;48.040;-1.594;2023-07-20T08:35:02;101204.16;;;24.29;64.40
46211;BME280;52144;48.040;-1.594;2023-07-20T08:37:30;101207.88;;;24.18;66.51
46211;BME280;52144;48.040;-1.594;2023-07-20T08:39:59;101208.47;;;24.12;66.65
46211;BME280;52144;48.040;-1.594;2023-07-20T08:42:27;101195.53;;;24.23;65.33
46211;BME280;52144;48.040;-1.594;2023-07-20T08:44:56;101203.78;;;24.04;65.43
46211;BME280;52144;48.040;-1.594;2023-07-20T08:47:25;101205.84;;;24.30;64.98
46211;BME280;52144;48.040;-1.594;2023-07-20T08:49:54;101200.75;;;24.07;64.18
46211;BME280;52144;48.040;-1.594;2023-07-20T08:52:23;101199.19;;;24.61;63.93
46211;BME280;52144;48.040;-1.594;2023-07-20T08:54:51;101198.06;;;24.82;62.20
46211;BME280;52144;48.040;-1.594;2023-07-20T08:57:22;101195.78;;;24.50;62.03
46211;BME280;52144;48.040;-1.594;2023-07-20T08:59:51;101192.06;;;24.41;63.99
46211;BME280;52144;48.040;-1.594;2023-07-20T09:02:24;101196.94;;;24.37;64.06
46211;BME280;52144;48.040;-1.594;2023-07-20T09:04:54;101193.50;;;23.78;65.48
46211;BME280;52144;48.040;-1.594;2023-07-20T09:07:21;101194.72;;;24.03;64.11
46211;BME280;52144;48.040;-1.594;2023-07-20T09:09:50;101201.56;;;24.27;62.73
46211;BME280;52144;48.040;-1.594;2023-07-20T09:12:18;101195.06;;;24.38;63.08
46211;BME280;52144;48.040;-1.594;2023-07-20T09:14:49;101199.06;;;24.06;64.51
46211;BME280;52144;48.040;-1.594;2023-07-20T09:17:17;101194.78;;;23.84;65.75
46211;BME280;52144;48.040;-1.594;2023-07-20T09:19:46;101190.91;;;23.87;66.14
46211;BME280;52144;48.040;-1.594;2023-07-20T09:22:14;101184.63;;;24.33;62.38
46211;BME280;52144;48.040;-1.594;2023-07-20T09:24:44;101196.22;;;24.35;60.62
46211;BME280;52144;48.040;-1.594;2023-07-20T09:27:12;101199.50;;;24.49;62.21
46211;BME280;52144;48.040;-1.594;2023-07-20T09:29:49;101185.34;;;24.73;59.98
46211;BME280;52144;48.040;-1.594;2023-07-20T09:32:18;101190.69;;;24.92;59.39
46211;BME280;52144;48.040;-1.594;2023-07-20T09:34:50;101190.69;;;25.38;58.75
46211;BME280;52144;48.040;-1.594;2023-07-20T09:37:22;101189.84;;;25.37;58.29
46211;BME280;52144;48.040;-1.594;2023-07-20T09:39:51;101193.16;;;24.48;60.13
46211;BME280;52144;48.040;-1.594;2023-07-20T09:42:22;101184.91;;;25.23;60.07
46211;BME280;52144;48.040;-1.594;2023-07-20T09:44:56;101182.69;;;25.09;58.48
46211;BME280;52144;48.040;-1.594;2023-07-20T09:47:24;101187.06;;;25.19;59.25
46211;BME280;52144;48.040;-1.594;2023-07-20T09:49:58;101178.00;;;25.65;57.67
46211;BME280;52144;48.040;-1.594;2023-07-20T09:52:30;101179.19;;;25.88;56.54
46211;BME280;52144;48.040;-1.594;2023-07-20T09:55:01;101181.03;;;25.26;57.04
46211;BME280;52144;48.040;-1.594;2023-07-20T09:57:31;101181.94;;;25.52;56.30
46211;BME280;52144;48.040;-1.594;2023-07-20T10:00:01;101170.38;;;25.32;54.49
46211;BME280;52144;48.040;-1.594;2023-07-20T10:02:41;101170.25;;;25.78;53.55
46211;BME280;52144;48.040;-1.594;2023-07-20T10:05:11;101176.97;;;25.48;50.65
46211;BME280;52144;48.040;-1.594;2023-07-20T10:07:43;101172.75;;;25.71;51.33
46211;BME280;52144;48.040;-1.594;2023-07-20T10:10:14;101176.19;;;25.55;50.86
46211;BME280;52144;48.040;-1.594;2023-07-20T10:12:42;101179.34;;;25.15;51.53
46211;BME280;52144;48.040;-1.594;2023-07-20T10:15:17;101178.22;;;25.35;52.34
46211;BME280;52144;48.040;-1.594;2023-07-20T10:17:56;101171.03;;;25.70;51.55
46211;BME280;52144;48.040;-1.594;2023-07-20T10:20:26;101174.66;;;25.35;52.69
46211;BME280;52144;48.040;-1.594;2023-07-20T10:22:56;101178.38;;;26.14;52.53
46211;BME280;52144;48.040;-1.594;2023-07-20T10:25:24;101173.06;;;26.38;51.73
46211;BME280;52144;48.040;-1.594;2023-07-20T10:27:52;101180.28;;;26.21;50.17
46211;BME280;52144;48.040;-1.594;2023-07-20T10:30:22;101169.63;;;25.48;51.63
46211;BME280;52144;48.040;-1.594;2023-07-20T10:32:51;101166.31;;;25.80;52.29
46211;BME280;52144;48.040;-1.594;2023-07-20T10:35:20;101169.00;;;26.16;50.46
46211;BME280;52144;48.040;-1.594;2023-07-20T10:38:00;101159.09;;;25.71;52.46
46211;BME280;52144;48.040;-1.594;2023-07-20T10:40:32;101151.34;;;25.40;51.87
46211;BME280;52144;48.040;-1.594;2023-07-20T10:43:02;101147.97;;;25.65;51.40
46211;BME280;52144;48.040;-1.594;2023-07-20T10:45:42;101155.13;;;25.66;50.11
46211;BME280;52144;48.040;-1.594;2023-07-20T10:48:14;101149.41;;;25.95;50.21
46211;BME280;52144;48.040;-1.594;2023-07-20T10:50:43;101148.09;;;26.07;49.82
46211;BME280;52144;48.040;-1.594;2023-07-20T10:53:12;101146.50;;;26.57;48.82
46211;BME280;52144;48.040;-1.594;2023-07-20T10:55:40;101138.19;;;26.58;47.38
46211;BME280;52144;48.040;-1.594;2023-07-20T10:58:10;101136.34;;;26.75;48.00
46211;BME280;52144;48.040;-1.594;2023-07-20T11:00:55;101124.94;;;27.05;47.52
46211;BME280;52144;48.040;-1.594;2023-07-20T11:03:29;101132.31;;;27.12;48.00
46211;BME280;52144;48.040;-1.594;2023-07-20T11:09:09;101134.41;;;27.27;47.42
46211;BME280;52144;48.040;-1.594;2023-07-20T11:11:39;101128.28;;;27.49;46.61
46211;BME280;52144;48.040;-1.594;2023-07-20T11:14:08;101114.00;;;26.88;46.22
46211;BME280;52144;48.040;-1.594;2023-07-20T11:16:42;101116.97;;;27.11;46.16
46211;BME280;52144;48.040;-1.594;2023-07-20T11:19:15;101122.47;;;26.60;45.94
46211;BME280;52144;48.040;-1.594;2023-07-20T11:22:04;101118.44;;;26.38;45.96
46211;BME280;52144;48.040;-1.594;2023-07-20T11:24:34;101108.03;;;26.93;46.02
46211;BME280;52144;48.040;-1.594;2023-07-20T11:27:02;101110.78;;;26.93;45.97
46211;BME280;52144;48.040;-1.594;2023-07-20T11:29:30;101107.41;;;27.65;44.50
46211;BME280;52144;48.040;-1.594;2023-07-20T11:32:02;101106.22;;;27.26;44.27
46211;BME280;52144;48.040;-1.594;2023-07-20T11:34:33;101095.97;;;27.36;45.84
46211;BME280;52144;48.040;-1.594;2023-07-20T11:37:01;101095.75;;;27.79;44.35
46211;BME280;52144;48.040;-1.594;2023-07-20T11:39:33;101101.94;;;27.48;43.99
46211;BME280;52144;48.040;-1.594;2023-07-20T11:41:59;101091.13;;;27.14;44.53
46211;BME280;52144;48.040;-1.594;2023-07-20T11:44:28;101083.50;;;27.26;44.61
46211;BME280;52144;48.040;-1.594;2023-07-20T11:47:03;101088.25;;;27.65;43.15
46211;BME280;52144;48.040;-1.594;2023-07-20T11:49:34;101083.31;;;27.60;42.80
46211;BME280;52144;48.040;-1.594;2023-07-20T11:52:04;101086.84;;;27.77;43.14
46211;BME280;52144;48.040;-1.594;2023-07-20T11:54:32;101077.47;;;28.35;42.99
46211;BME280;52144;48.040;-1.594;2023-07-20T11:57:01;101072.94;;;28.51;42.14
46211;BME280;52144;48.040;-1.594;2023-07-20T11:59:29;101073.91;;;28.66;42.72
46211;BME280;52144;48.040;-1.594;2023-07-20T12:01:58;101075.22;;;27.83;42.19
46211;BME280;52144;48.040;-1.594;2023-07-20T12:04:31;101060.72;;;28.61;41.49
46211;BME280;52144;48.040;-1.594;2023-07-20T12:06:59;101062.50;;;28.54;41.69
46211;BME280;52144;48.040;-1.594;2023-07-20T12:09:27;101057.69;;;28.56;41.78
46211;BME280;52144;48.040;-1.594;2023-07-20T12:12:11;101056.94;;;28.31;42.03
46211;BME280;52144;48.040;-1.594;2023-07-20T12:14:39;101048.59;;;28.56;41.96
46211;BME280;52144;48.040;-1.594;2023-07-20T12:17:08;101058.13;;;27.73;41.50
46211;BME280;52144;48.040;-1.594;2023-07-20T12:19:39;101055.09;;;27.35;42.65
46211;BME280;52144;48.040;-1.594;2023-07-20T12:22:07;101051.81;;;27.15;43.02
46211;BME280;52144;48.040;-1.594;2023-07-20T12:24:35;101046.88;;;27.27;42.97
46211;BME280;52144;48.040;-1.594;2023-07-20T12:27:04;101049.09;;;27.64;43.27
46211;BME280;52144;48.040;-1.594;2023-07-20T12:29:31;101035.06;;;28.15;42.85
46211;BME280;52144;48.040;-1.594;2023-07-20T12:32:04;101023.94;;;28.56;42.61
46211;BME280;52144;48.040;-1.594;2023-07-20T12:34:32;101031.34;;;28.39;41.95
46211;BME280;52144;48.040;-1.594;2023-07-20T12:37:04;101033.66;;;28.27;42.84
46211;BME280;52144;48.040;-1.594;2023-07-20T12:39:32;101037.13;;;28.13;42.82
46211;BME280;52144;48.040;-1.594;2023-07-20T12:42:00;101026.06;;;28.69;42.31
46211;BME280;52144;48.040;-1.594;2023-07-20T12:44:28;101031.25;;;28.87;42.41
46211;BME280;52144;48.040;-1.594;2023-07-20T12:46:55;101033.25;;;28.70;41.78
46211;BME280;52144;48.040;-1.594;2023-07-20T12:49:24;101027.97;;;28.29;42.91
46211;BME280;52144;48.040;-1.594;2023-07-20T12:51:51;101032.69;;;28.51;43.16
46211;BME280;52144;48.040;-1.594;2023-07-20T12:54:21;101034.47;;;28.67;42.90
46211;BME280;52144;48.040;-1.594;2023-07-20T12:56:48;101030.28;;;28.48;42.48